Time;durP1;ratioP1;P1;durP2;ratioP2;P2;SDS_P1;SDS_P2;PMS_P1;PMS_P2;Temp;Humidity;BMP_temperature;BMP_pressure;BME280_temperature;BME280_humidity;BME280_pressure;Samples;Min_cycle;Max_cycle;Signal;HPM_P1;HPM_P2
2023/04/01 00:00:52;;;;;;;8.65;1.73;;;9.80;99.90;;;;;;5068564;28;20028;-58
2023/04/01 00:03:18;;;;;;;6.18;2.70;;;9.80;99.90;;;;;;5083636;28;20353;-58
2023/04/01 00:05:45;;;;;;;5.50;2.60;;;9.80;99.90;;;;;;5069119;28;20116;-58
2023/04/01 00:08:11;;;;;;;11.55;2.80;;;9.80;99.90;;;;;;5081607;28;20400;-58
2023/04/01 00:10:37;;;;;;;6.53;2.90;;;9.80;99.90;;;;;;5069370;28;20095;-58
2023/04/01 00:13:03;;;;;;;6.32;3.47;;;9.90;99.90;;;;;;5069700;28;20031;-58
2023/04/01 00:15:28;;;;;;;8.23;3.60;;;9.90;99.90;;;;;;5069181;28;20060;-58
2023/04/01 00:17:54;;;;;;;7.50;3.97;;;9.90;99.90;;;;;;5069346;28;20184;-58
2023/04/01 00:20:20;;;;;;;8.73;4.80;;;9.90;99.90;;;;;;5069394;28;20013;-58
2023/04/01 00:22:46;;;;;;;6.93;4.30;;;9.90;99.90;;;;;;5069271;28;20021;-58
2023/04/01 00:25:11;;;;;;;9.38;5.30;;;9.90;99.90;;;;;;5069230;28;20066;-58
2023/04/01 00:27:37;;;;;;;11.82;6.90;;;9.90;99.90;;;;;;5069573;28;20100;-58
2023/04/01 00:30:03;;;;;;;8.60;5.82;;;9.90;99.90;;;;;;5072310;28;20415;-58
2023/04/01 00:32:30;;;;;;;7.95;6.13;;;10.00;99.90;;;;;;5073388;28;20036;-58
2023/04/01 00:34:55;;;;;;;8.75;6.82;;;10.00;99.90;;;;;;5071564;28;20028;-58
2023/04/01 00:37:22;;;;;;;13.13;7.25;;;10.00;99.90;;;;;;5080322;28;20132;-58
2023/04/01 00:39:48;;;;;;;10.40;7.78;;;10.00;99.90;;;;;;5071576;28;20073;-58
2023/04/01 00:42:13;;;;;;;9.70;6.90;;;10.00;99.90;;;;;;5058241;28;20601;-58
2023/04/01 00:44:40;;;;;;;10.27;7.35;;;10.00;99.90;;;;;;5056331;28;20040;-58
2023/04/01 00:47:06;;;;;;;10.15;8.50;;;10.00;99.90;;;;;;5070892;28;20024;-58
2023/04/01 00:49:42;;;;;;;13.60;7.95;;;10.00;99.90;;;;;;5073011;28;20384;-59
2023/04/01 00:52:09;;;;;;;11.85;8.90;;;10.10;99.90;;;;;;5072839;28;20086;-58
2023/04/01 00:54:36;;;;;;;11.48;8.55;;;10.10;99.90;;;;;;5072384;28;20031;-57
2023/04/01 00:57:19;;;;;;;14.13;8.77;;;10.10;99.90;;;;;;5073055;28;20107;-58
2023/04/01 00:59:49;;;;;;;12.00;9.02;;;10.20;99.90;;;;;;5072775;28;20028;-58
2023/04/01 01:02:16;;;;;;;11.90;9.02;;;10.10;99.90;;;;;;5071238;28;20021;-58
2023/04/01 01:04:42;;;;;;;11.90;9.23;;;10.10;99.90;;;;;;5072861;28;20024;-58
2023/04/01 01:07:07;;;;;;;13.68;9.95;;;10.20;99.90;;;;;;5072464;28;20543;-58
2023/04/01 01:09:54;;;;;;;11.65;9.35;;;10.20;99.90;;;;;;5071801;28;20074;-58
2023/04/01 01:12:31;;;;;;;13.55;9.98;;;10.20;99.90;;;;;;5071887;28;20056;-58
2023/04/01 01:15:15;;;;;;;15.00;9.63;;;10.20;99.90;;;;;;5072154;28;20016;-58
2023/04/01 01:17:51;;;;;;;13.40;10.32;;;10.20;99.90;;;;;;5071629;28;20132;-59
2023/04/01 01:20:29;;;;;;;12.07;9.00;;;10.20;99.90;;;;;;5070802;28;20026;-58
2023/04/01 01:23:36;;;;;;;11.43;10.23;;;10.20;99.90;;;;;;5071853;28;20025;-58
2023/04/01 01:26:16;;;;;;;12.93;10.63;;;10.20;99.90;;;;;;5071208;28;20021;-58
2023/04/01 01:29:17;;;;;;;11.77;10.02;;;10.30;99.90;;;;;;5072341;28;20052;-58
2023/04/01 01:31:54;;;;;;;12.52;9.95;;;10.30;99.90;;;;;;5065598;28;20025;-58
2023/04/01 01:34:28;;;;;;;10.15;9.13;;;10.30;99.90;;;;;;5072497;28;20030;-58
2023/04/01 01:37:00;;;;;;;12.20;9.60;;;10.30;99.90;;;;;;5069699;28;20121;-58
2023/04/01 01:39:31;;;;;;;12.38;9.70;;;10.30;99.90;;;;;;5070507;28;20154;-58
2023/04/01 01:42:00;;;;;;;10.15;8.75;;;10.30;99.90;;;;;;5071106;28;20016;-58
2023/04/01 01:44:28;;;;;;;10.30;9.02;;;10.30;99.90;;;;;;5071771;28;20028;-58
2023/04/01 01:46:55;;;;;;;11.00;8.88;;;10.30;99.90;;;;;;5072030;28;20252;-58
2023/04/01 01:49:21;;;;;;;13.48;8.65;;;10.30;99.90;;;;;;5071540;28;20021;-58
2023/04/01 01:51:48;;;;;;;11.50;9.27;;;10.30;99.90;;;;;;5071366;28;20171;-58
2023/04/01 01:54:15;;;;;;;8.77;7.15;;;10.30;99.90;;;;;;5071752;28;20020;-58
2023/04/01 01:56:44;;;;;;;8.60;7.10;;;10.30;99.90;;;;;;5071033;28;20056;-58
2023/04/01 01:59:11;;;;;;;8.85;6.88;;;10.30;99.90;;;;;;5069717;28;20016;-58
2023/04/01 02:01:41;;;;;;;7.70;6.28;;;10.30;99.90;;;;;;5071713;28;20016;-58
2023/04/01 02:04:09;;;;;;;8.43;6.22;;;10.30;99.90;;;;;;5071864;28;20020;-59
2023/04/01 02:06:39;;;;;;;8.02;6.18;;;10.30;99.90;;;;;;5071183;28;20039;-59
2023/04/01 02:09:10;;;;;;;9.32;6.55;;;10.30;99.90;;;;;;5071777;28;20067;-58
2023/04/01 02:11:43;;;;;;;8.15;6.28;;;10.30;99.90;;;;;;5069226;28;20103;-58
2023/04/01 02:14:22;;;;;;;6.68;5.20;;;10.30;99.90;;;;;;5070936;28;20016;-58
2023/04/01 02:17:01;;;;;;;6.15;4.35;;;10.30;99.90;;;;;;5070807;28;20033;-58
2023/04/01 02:19:36;;;;;;;5.07;3.22;;;10.30;99.90;;;;;;5071110;28;20103;-58
2023/04/01 02:22:04;;;;;;;4.38;3.30;;;10.20;99.90;;;;;;5070014;28;20063;-59
2023/04/01 02:24:33;;;;;;;4.82;3.42;;;10.20;99.90;;;;;;5071394;28;20028;-58
2023/04/01 02:26:58;;;;;;;7.28;3.63;;;10.20;99.90;;;;;;5071129;28;20013;-58
2023/04/01 02:29:26;;;;;;;5.15;3.50;;;10.20;99.90;;;;;;5071206;28;20101;-59
2023/04/01 02:31:52;;;;;;;4.85;3.55;;;10.20;99.90;;;;;;5068590;28;20054;-58
2023/04/01 02:34:19;;;;;;;4.22;3.17;;;10.20;99.90;;;;;;5070734;28;20098;-59
2023/04/01 02:36:46;;;;;;;4.90;2.88;;;10.20;99.90;;;;;;5069627;28;20377;-58
2023/04/01 02:39:13;;;;;;;3.47;2.70;;;10.20;99.90;;;;;;5070994;28;20380;-59
2023/04/01 02:41:43;;;;;;;4.50;3.35;;;10.20;99.90;;;;;;5070652;28;20037;-59
2023/04/01 02:44:10;;;;;;;3.10;2.40;;;10.20;99.90;;;;;;5070386;28;20013;-59
2023/04/01 02:46:36;;;;;;;5.18;2.83;;;10.20;99.90;;;;;;5070826;28;20025;-59
2023/04/01 02:49:02;;;;;;;4.55;3.42;;;10.20;99.90;;;;;;5070306;28;20077;-58
2023/04/01 02:51:27;;;;;;;3.50;2.55;;;10.10;99.90;;;;;;5070867;28;20229;-59
2023/04/01 02:53:53;;;;;;;3.45;3.03;;;10.10;99.90;;;;;;5068781;28;20541;-58
2023/04/01 02:56:19;;;;;;;3.33;2.60;;;10.10;99.90;;;;;;5070319;28;20063;-58
2023/04/01 02:58:45;;;;;;;4.05;2.40;;;10.10;99.90;;;;;;5083090;28;20020;-58
2023/04/01 03:01:11;;;;;;;3.63;2.80;;;10.10;99.90;;;;;;5063924;28;20025;-58
2023/04/01 03:03:37;;;;;;;3.40;2.60;;;10.10;99.90;;;;;;5070077;28;20020;-58
2023/04/01 03:06:10;;;;;;;3.22;2.30;;;10.10;99.90;;;;;;5070322;28;20028;-58
2023/04/01 03:08:36;;;;;;;5.57;2.90;;;10.10;99.90;;;;;;5069861;28;20019;-59
2023/04/01 03:11:02;;;;;;;4.90;2.70;;;10.10;99.90;;;;;;5070299;28;20016;-58
2023/04/01 03:13:28;;;;;;;3.53;3.13;;;10.00;99.90;;;;;;5070063;28;20016;-58
2023/04/01 03:15:54;;;;;;;3.95;3.10;;;10.00;99.90;;;;;;5070279;28;20035;-58
2023/04/01 03:18:19;;;;;;;4.10;3.30;;;10.10;99.90;;;;;;5069427;28;20028;-58
2023/04/01 03:20:45;;;;;;;5.35;3.78;;;10.00;99.90;;;;;;5070129;28;20465;-58
2023/04/01 03:23:11;;;;;;;7.03;3.90;;;10.00;99.90;;;;;;5069319;28;20476;-59
2023/04/01 03:25:36;;;;;;;5.65;3.78;;;10.00;99.90;;;;;;5070082;28;20094;-58
2023/04/01 03:28:02;;;;;;;5.68;4.32;;;10.00;99.90;;;;;;5069460;28;20090;-59
2023/04/01 03:30:30;;;;;;;5.82;3.90;;;10.00;99.90;;;;;;5069722;28;20533;-58
2023/04/01 03:32:55;;;;;;;6.07;4.50;;;10.00;99.90;;;;;;5069802;28;20054;-59
2023/04/01 03:35:21;;;;;;;4.75;3.65;;;10.00;99.90;;;;;;5070023;28;20020;-58
2023/04/01 03:37:46;;;;;;;5.50;3.70;;;10.00;99.90;;;;;;5069104;28;20029;-58
2023/04/01 03:40:12;;;;;;;5.25;4.03;;;10.00;99.90;;;;;;5067296;28;20036;-58
2023/04/01 03:42:37;;;;;;;6.15;3.58;;;10.00;99.90;;;;;;5069335;28;20092;-58
2023/04/01 03:45:04;;;;;;;5.07;3.10;;;9.90;99.90;;;;;;5067996;28;20040;-59
2023/04/01 03:47:30;;;;;;;6.25;3.40;;;10.00;99.90;;;;;;5068793;28;20028;-59
2023/04/01 03:49:55;;;;;;;4.10;3.17;;;10.00;99.90;;;;;;5069682;28;20028;-58
2023/04/01 03:52:21;;;;;;;5.47;3.03;;;9.90;99.90;;;;;;5069488;28;20028;-58
2023/04/01 03:54:47;;;;;;;4.13;3.28;;;9.90;99.90;;;;;;5069423;28;20108;-59
2023/04/01 03:57:12;;;;;;;4.72;3.92;;;9.90;99.90;;;;;;5083256;28;20031;-58
2023/04/01 03:59:38;;;;;;;4.45;3.20;;;9.90;99.90;;;;;;5069797;28;20036;-58
2023/04/01 04:02:04;;;;;;;4.70;4.13;;;9.90;99.90;;;;;;5053670;28;20534;-58
2023/04/01 04:04:29;;;;;;;5.75;4.47;;;9.90;99.90;;;;;;5081388;28;20610;-58
2023/04/01 04:06:56;;;;;;;6.18;4.93;;;9.90;99.90;;;;;;5067297;28;20078;-58
2023/04/01 04:09:22;;;;;;;5.88;5.28;;;9.90;99.90;;;;;;5082532;28;20025;-59
2023/04/01 04:11:48;;;;;;;6.72;5.20;;;9.90;99.90;;;;;;5069034;28;20016;-58
2023/04/01 04:14:14;;;;;;;7.50;5.53;;;9.90;99.90;;;;;;5083823;28;20029;-58
2023/04/01 04:16:39;;;;;;;8.40;6.18;;;9.90;99.90;;;;;;5069287;28;20027;-58
2023/04/01 04:19:05;;;;;;;7.47;6.18;;;9.90;99.90;;;;;;5069456;28;20467;-58
2023/04/01 04:21:31;;;;;;;9.35;7.28;;;9.80;99.90;;;;;;5066196;28;20484;-58
2023/04/01 04:23:57;;;;;;;8.50;7.13;;;9.80;99.90;;;;;;5069393;28;20023;-58
2023/04/01 04:26:23;;;;;;;10.23;8.15;;;9.80;99.90;;;;;;5069056;28;20016;-58
2023/04/01 04:28:48;;;;;;;11.20;8.70;;;9.80;99.90;;;;;;5068985;28;20029;-58
2023/04/01 04:31:20;;;;;;;12.25;9.68;;;9.80;99.90;;;;;;5069133;28;20024;-58
2023/04/01 04:33:45;;;;;;;11.63;9.05;;;9.80;99.90;;;;;;5069252;28;20042;-59
2023/04/01 04:36:11;;;;;;;12.65;9.65;;;9.80;99.90;;;;;;5068826;28;20100;-58
2023/04/01 04:38:37;;;;;;;13.23;9.15;;;9.80;99.90;;;;;;5082561;28;20039;-58
2023/04/01 04:41:02;;;;;;;10.50;8.80;;;9.80;99.90;;;;;;5069142;28;20066;-59
2023/04/01 04:43:28;;;;;;;11.73;9.07;;;9.80;99.90;;;;;;5068930;28;20016;-58
2023/04/01 04:45:53;;;;;;;12.93;9.20;;;9.80;99.90;;;;;;5069021;28;20016;-58
2023/04/01 04:48:20;;;;;;;12.23;9.27;;;9.70;99.90;;;;;;5068437;28;20021;-58
2023/04/01 04:50:50;;;;;;;13.35;9.90;;;9.80;99.90;;;;;;5066537;28;20027;-58
2023/04/01 04:53:17;;;;;;;13.55;8.90;;;9.70;99.90;;;;;;5068526;28;20016;-59
2023/04/01 04:55:45;;;;;;;11.15;9.23;;;9.80;99.90;;;;;;5068021;28;20597;-58
2023/04/01 04:58:11;;;;;;;9.82;8.07;;;9.70;99.90;;;;;;5068621;28;20050;-58
2023/04/01 05:00:36;;;;;;;10.23;8.45;;;9.70;99.90;;;;;;5065792;28;20475;-58
2023/04/01 05:03:02;;;;;;;10.70;9.18;;;9.80;99.90;;;;;;5069112;28;20523;-58
2023/04/01 05:05:28;;;;;;;11.45;8.95;;;9.80;99.90;;;;;;5067274;28;20013;-58
2023/04/01 05:07:53;;;;;;;10.60;8.63;;;9.70;99.90;;;;;;5068942;28;20024;-58
2023/04/01 05:10:20;;;;;;;10.40;8.77;;;9.80;99.90;;;;;;5068750;28;20028;-58
2023/04/01 05:12:46;;;;;;;13.90;9.05;;;9.70;99.90;;;;;;5068913;28;20096;-59
2023/04/01 05:15:11;;;;;;;11.75;9.27;;;9.70;99.90;;;;;;5068375;28;20031;-59
2023/04/01 05:17:37;;;;;;;10.90;8.80;;;9.70;99.90;;;;;;5072189;28;20054;-59
2023/04/01 05:20:03;;;;;;;13.43;9.75;;;9.70;99.90;;;;;;5084506;28;20030;-58
2023/04/01 05:22:29;;;;;;;12.65;9.57;;;9.70;99.90;;;;;;5070967;28;20027;-59
2023/04/01 05:24:55;;;;;;;11.75;10.30;;;9.80;99.90;;;;;;5059251;28;20096;-59
2023/04/01 05:27:20;;;;;;;11.07;9.63;;;9.80;99.90;;;;;;5072525;28;20066;-59
2023/04/01 05:29:46;;;;;;;11.55;9.77;;;9.80;99.90;;;;;;5071715;28;20544;-59
2023/04/01 05:32:11;;;;;;;16.52;10.90;;;9.80;99.90;;;;;;5072227;28;20103;-58
2023/04/01 05:34:37;;;;;;;14.25;11.10;;;9.90;99.90;;;;;;5071730;28;20056;-59
2023/04/01 05:37:02;;;;;;;15.48;11.35;;;9.90;99.90;;;;;;5072167;28;20052;-59
2023/04/01 05:39:28;;;;;;;18.20;13.52;;;9.90;99.90;;;;;;5072302;28;20056;-59
2023/04/01 05:41:54;;;;;;;20.08;13.68;;;9.90;99.90;;;;;;5087314;28;20115;-58
2023/04/01 05:44:19;;;;;;;19.38;13.65;;;10.00;99.90;;;;;;5073023;28;20017;-58
2023/04/01 05:46:45;;;;;;;18.60;14.15;;;10.00;99.90;;;;;;5073618;28;20032;-58
2023/04/01 05:49:10;;;;;;;19.70;14.07;;;10.00;99.90;;;;;;5073078;28;20032;-58
2023/04/01 05:51:36;;;;;;;19.77;13.55;;;10.00;99.90;;;;;;5072309;28;20048;-58
2023/04/01 05:54:03;;;;;;;21.10;14.23;;;10.10;99.90;;;;;;5074454;28;20387;-59
2023/04/01 05:56:29;;;;;;;20.08;13.95;;;10.10;99.90;;;;;;5073232;28;20087;-58
2023/04/01 05:58:54;;;;;;;20.45;14.45;;;10.10;99.90;;;;;;5071819;28;20048;-59
2023/04/01 06:01:20;;;;;;;22.60;14.85;;;10.10;99.90;;;;;;5073023;28;20472;-58
2023/04/01 06:03:46;;;;;;;23.58;14.93;;;10.10;99.90;;;;;;5072467;28;20024;-59
2023/04/01 06:06:19;;;;;;;19.58;13.25;;;10.10;99.90;;;;;;5063180;28;20032;-59
2023/04/01 06:08:45;;;;;;;21.23;13.73;;;10.20;99.90;;;;;;5066114;28;20036;-59
2023/04/01 06:11:10;;;;;;;20.40;13.40;;;10.10;99.90;;;;;;5063669;28;20021;-58
2023/04/01 06:14:00;;;;;;;19.38;13.65;;;10.20;99.90;;;;;;5072443;28;20491;-59
2023/04/01 06:16:43;;;;;;;17.88;12.57;;;10.20;99.90;;;;;;5066210;28;20426;-58
2023/04/01 06:19:29;;;;;;;19.50;13.10;;;10.20;99.90;;;;;;5069017;28;20083;-59
2023/04/01 06:22:03;;;;;;;18.67;13.23;;;10.30;99.90;;;;;;5068399;28;20052;-59
2023/04/01 06:25:11;;;;;;;18.15;12.27;;;10.30;99.90;;;;;;5073053;28;20024;-59
2023/04/01 06:27:54;;;;;;;22.52;15.00;;;10.30;99.90;;;;;;5072736;28;20047;-59
2023/04/01 06:30:52;;;;;;;22.05;15.65;;;10.40;99.90;;;;;;5059939;28;20028;-58
2023/04/01 06:33:23;;;;;;;22.85;16.08;;;10.40;99.90;;;;;;5072027;28;20046;-58
2023/04/01 06:36:11;;;;;;;23.85;16.25;;;10.40;99.90;;;;;;5070965;28;20033;-59
2023/04/01 06:39:25;;;;;;;26.75;16.65;;;10.40;99.90;;;;;;5057496;28;20123;-58
2023/04/01 06:41:59;;;;;;;29.55;18.60;;;10.40;99.90;;;;;;5048774;28;20037;-59
2023/04/01 06:44:55;;;;;;;28.33;17.98;;;10.40;99.90;;;;;;5058684;28;20027;-59
2023/04/01 06:47:20;;;;;;;27.92;18.10;;;10.40;99.90;;;;;;5069891;28;20028;-59
2023/04/01 06:50:04;;;;;;;26.65;18.30;;;10.40;99.90;;;;;;5072026;28;20075;-59
2023/04/01 06:52:58;;;;;;;23.92;17.92;;;10.40;99.90;;;;;;5059103;28;20024;-59
2023/04/01 06:55:27;;;;;;;23.75;17.73;;;10.50;99.90;;;;;;5026609;28;20041;-59
2023/04/01 06:57:56;;;;;;;24.65;16.17;;;10.40;99.90;;;;;;5078171;28;20028;-59
2023/04/01 07:00:45;;;;;;;25.17;16.30;;;10.50;99.90;;;;;;5071830;28;20086;-59
2023/04/01 07:03:29;;;;;;;24.05;17.77;;;10.50;99.90;;;;;;5069091;28;20029;-59
2023/04/01 07:06:01;;;;;;;27.00;16.83;;;10.50;99.90;;;;;;5061718;28;20409;-59
2023/04/01 07:08:29;;;;;;;23.30;16.45;;;10.50;99.90;;;;;;5071132;28;20020;-60
2023/04/01 07:11:02;;;;;;;21.92;15.73;;;10.50;99.90;;;;;;5071834;28;20029;-59
2023/04/01 07:13:36;;;;;;;22.63;16.75;;;10.50;99.90;;;;;;5070918;28;20074;-59
2023/04/01 07:16:37;;;;;;;26.02;17.42;;;10.60;99.90;;;;;;5086577;28;20122;-59
2023/04/01 07:19:23;;;;;;;22.33;16.02;;;10.60;99.90;;;;;;5060030;28;20132;-59
2023/04/01 07:21:54;;;;;;;22.00;15.50;;;10.50;99.90;;;;;;5058861;28;20028;-59
2023/04/01 07:24:22;;;;;;;23.38;15.30;;;10.60;99.90;;;;;;5071045;28;20099;-59
2023/04/01 07:26:54;;;;;;;24.38;15.57;;;10.60;99.90;;;;;;5071311;28;20559;-59
2023/04/01 07:29:20;;;;;;;23.00;16.35;;;10.60;99.90;;;;;;5071297;28;20063;-59
2023/04/01 07:31:48;;;;;;;22.67;14.93;;;10.60;99.90;;;;;;5071038;28;20110;-59
2023/04/01 07:34:26;;;;;;;22.70;14.77;;;10.60;99.90;;;;;;5069864;28;20028;-59
2023/04/01 07:36:55;;;;;;;19.75;13.63;;;10.60;99.90;;;;;;5065831;28;20028;-59
2023/04/01 07:39:39;;;;;;;21.23;14.45;;;10.60;99.90;;;;;;5068873;28;20020;-59
2023/04/01 07:42:39;;;;;;;22.00;13.90;;;10.60;99.90;;;;;;5070236;28;20161;-59
2023/04/01 07:45:25;;;;;;;20.38;14.60;;;10.60;99.90;;;;;;5070734;28;20097;-59
2023/04/01 07:48:09;;;;;;;21.20;14.48;;;10.60;99.90;;;;;;5068320;28;20575;-59
2023/04/01 07:51:07;;;;;;;20.40;13.43;;;10.70;99.90;;;;;;5085926;28;20086;-59
2023/04/01 07:53:57;;;;;;;19.10;13.52;;;10.70;99.90;;;;;;5070444;28;20399;-59
2023/04/01 07:56:48;;;;;;;18.67;13.07;;;10.70;99.90;;;;;;5070838;28;20127;-59
2023/04/01 07:59:28;;;;;;;19.77;13.38;;;10.70;99.90;;;;;;5063115;28;20128;-59
2023/04/01 08:02:29;;;;;;;14.30;10.98;;;10.70;99.90;;;;;;5069349;28;20025;-59
2023/04/01 08:05:04;;;;;;;14.43;10.85;;;10.70;99.90;;;;;;5070642;28;20515;-59
2023/04/01 08:07:43;;;;;;;17.85;12.20;;;10.70;99.90;;;;;;5071089;28;20028;-59
2023/04/01 08:10:35;;;;;;;18.33;11.60;;;10.70;99.90;;;;;;5070536;28;20073;-59
2023/04/01 08:13:34;;;;;;;15.57;11.43;;;10.70;99.90;;;;;;5070419;28;20077;-60
2023/04/01 08:16:15;;;;;;;16.95;11.45;;;10.70;99.90;;;;;;5070987;28;20036;-59
2023/04/01 08:19:02;;;;;;;16.80;11.18;;;10.80;99.90;;;;;;5058812;28;20333;-59
2023/04/01 08:21:37;;;;;;;15.25;10.60;;;10.80;99.90;;;;;;5070163;28;20538;-59
2023/04/01 08:24:24;;;;;;;15.07;10.18;;;10.80;99.90;;;;;;5050934;28;20045;-59
2023/04/01 08:26:55;;;;;;;14.93;9.75;;;10.90;99.90;;;;;;5069077;28;20024;-59
2023/04/01 08:29:58;;;;;;;13.55;9.32;;;10.80;99.90;;;;;;5070990;28;20045;-59
2023/04/01 08:32:35;;;;;;;11.98;9.57;;;10.90;99.90;;;;;;5062449;28;20025;-59
2023/04/01 08:35:28;;;;;;;14.55;10.25;;;10.90;99.90;;;;;;5068877;28;20113;-59
2023/04/01 08:37:57;;;;;;;14.57;10.07;;;10.90;99.90;;;;;;5070111;28;20078;-59
2023/04/01 08:40:41;;;;;;;12.82;9.85;;;10.90;99.90;;;;;;5070442;28;20021;-59
2023/04/01 08:43:45;;;;;;;15.95;9.98;;;11.00;99.90;;;;;;5069248;28;20017;-59
2023/04/01 08:46:33;;;;;;;19.02;10.23;;;11.00;99.90;;;;;;5061329;28;20028;-60
2023/04/01 08:49:27;;;;;;;12.88;9.20;;;11.00;99.90;;;;;;5011588;28;20115;-59
2023/04/01 08:52:08;;;;;;;17.00;11.27;;;11.00;99.90;;;;;;5070478;28;20017;-59
2023/04/01 08:55:11;;;;;;;11.35;9.43;;;11.10;99.90;;;;;;5067104;28;20113;-59
2023/04/01 08:58:23;;;;;;;13.93;10.07;;;11.10;99.90;;;;;;5065600;28;20020;-59
2023/04/01 09:00:56;;;;;;;13.05;9.10;;;11.10;99.90;;;;;;4964621;28;20122;-60
2023/04/01 09:03:43;;;;;;;15.77;11.00;;;11.20;99.90;;;;;;4973076;28;20019;-59
2023/04/01 09:06:33;;;;;;;14.35;10.63;;;11.20;99.90;;;;;;5035458;28;20086;-60
2023/04/01 09:09:30;;;;;;;14.80;10.32;;;11.30;99.90;;;;;;5065337;28;20029;-60
2023/04/01 09:12:19;;;;;;;13.63;10.38;;;11.30;99.90;;;;;;5019188;28;20074;-59
2023/04/01 09:15:19;;;;;;;19.20;11.17;;;11.30;99.90;;;;;;5060927;28;20590;-59
2023/04/01 09:17:51;;;;;;;16.75;10.38;;;11.30;99.90;;;;;;5063372;28;20017;-59
2023/04/01 09:20:34;;;;;;;15.35;11.07;;;11.30;99.90;;;;;;5069553;28;20028;-59
2023/04/01 09:23:19;;;;;;;16.95;10.88;;;11.30;99.90;;;;;;5071450;28;20035;-60
2023/04/01 09:26:11;;;;;;;20.25;12.10;;;11.30;99.90;;;;;;5063046;28;20518;-59
2023/04/01 09:29:00;;;;;;;18.75;12.13;;;11.30;99.90;;;;;;5073213;28;20027;-59
2023/04/01 09:31:53;;;;;;;20.45;12.40;;;11.40;99.90;;;;;;5073313;28;20023;-60
2023/04/01 09:34:21;;;;;;;21.77;14.27;;;11.40;99.90;;;;;;5072686;28;20119;-59
2023/04/01 09:37:09;;;;;;;18.75;12.82;;;11.30;99.90;;;;;;5073258;28;20024;-60
2023/04/01 09:39:48;;;;;;;20.05;12.35;;;11.40;99.90;;;;;;5073390;28;20012;-60
2023/04/01 09:42:30;;;;;;;18.95;12.40;;;11.40;99.90;;;;;;5088530;28;20110;-59
2023/04/01 09:45:04;;;;;;;19.35;12.25;;;11.40;99.90;;;;;;5062296;28;20048;-60
2023/04/01 09:48:05;;;;;;;16.45;12.77;;;11.40;99.90;;;;;;5059872;28;20482;-60
2023/04/01 09:50:54;;;;;;;23.50;14.13;;;11.30;99.90;;;;;;5072559;28;20078;-60
2023/04/01 09:53:28;;;;;;;18.60;12.55;;;11.30;99.90;;;;;;5068806;28;20392;-60
2023/04/01 09:56:19;;;;;;;21.33;13.05;;;11.30;99.90;;;;;;5071261;28;20044;-60
2023/04/01 09:59:08;;;;;;;19.80;13.65;;;11.30;99.90;;;;;;5072717;28;20507;-60
2023/04/01 10:01:45;;;;;;;18.98;14.52;;;11.30;99.90;;;;;;5072090;28;20029;-60
2023/04/01 10:04:48;;;;;;;20.70;14.20;;;11.30;99.90;;;;;;5061857;28;20023;-59
2023/04/01 10:07:19;;;;;;;20.17;14.38;;;11.30;99.90;;;;;;5072160;28;20131;-60
2023/04/01 10:10:31;;;;;;;19.25;14.40;;;11.30;99.90;;;;;;5072259;28;20198;-60
2023/04/01 10:13:30;;;;;;;22.35;14.43;;;11.30;99.90;;;;;;5059285;28;20020;-60
2023/04/01 10:16:32;;;;;;;19.33;13.90;;;11.30;99.90;;;;;;5070977;28;20036;-60
2023/04/01 10:19:13;;;;;;;22.10;14.98;;;11.30;99.90;;;;;;5066798;28;20399;-60
2023/04/01 10:21:57;;;;;;;20.67;14.75;;;11.30;99.90;;;;;;5071347;28;20404;-60
2023/04/01 10:24:51;;;;;;;24.25;14.45;;;11.40;99.90;;;;;;5072569;28;20036;-60
2023/04/01 10:27:45;;;;;;;18.98;13.98;;;11.40;99.90;;;;;;5060299;28;20475;-60
2023/04/01 10:30:38;;;;;;;20.60;14.75;;;11.50;99.90;;;;;;5068599;28;20450;-60
2023/04/01 10:33:45;;;;;;;23.75;15.00;;;11.60;99.90;;;;;;5071451;28;20035;-59
2023/04/01 10:36:30;;;;;;;18.92;13.95;;;11.60;99.90;;;;;;5070517;28;20012;-60
2023/04/01 10:39:13;;;;;;;18.58;12.48;;;11.70;99.90;;;;;;5071173;28;20036;-60
2023/04/01 10:42:15;;;;;;;19.10;13.90;;;11.70;99.90;;;;;;5072461;28;20077;-59
2023/04/01 10:44:59;;;;;;;18.15;12.45;;;11.70;99.90;;;;;;5071822;28;20048;-59
2023/04/01 10:48:02;;;;;;;19.00;13.32;;;11.70;99.90;;;;;;5071786;28;20025;-60
2023/04/01 10:50:34;;;;;;;18.15;12.65;;;11.80;99.90;;;;;;5063071;28;20634;-60
2023/04/01 10:53:31;;;;;;;17.23;12.60;;;11.70;99.90;;;;;;5089818;28;20036;-59
2023/04/01 10:56:29;;;;;;;18.10;13.57;;;11.80;99.90;;;;;;5071115;28;20044;-59
2023/04/01 10:59:07;;;;;;;17.52;12.40;;;11.80;99.90;;;;;;5072816;28;20042;-59
2023/04/01 11:01:47;;;;;;;18.33;12.75;;;11.80;99.90;;;;;;5065607;28;20015;-59
2023/04/01 11:04:34;;;;;;;14.98;10.60;;;11.80;99.90;;;;;;5069081;28;20028;-60
2023/04/01 11:07:31;;;;;;;14.25;10.85;;;11.80;99.90;;;;;;5066600;28;20078;-59
2023/04/01 11:10:35;;;;;;;11.50;8.65;;;11.80;99.90;;;;;;5066613;28;20099;-59
2023/04/01 11:13:09;;;;;;;9.50;7.78;;;11.80;99.90;;;;;;5059348;28;20120;-60
2023/04/01 11:15:38;;;;;;;9.80;7.93;;;11.80;99.90;;;;;;5067196;28;20505;-59
2023/04/01 11:18:36;;;;;;;10.77;7.88;;;11.80;99.90;;;;;;5076780;28;20135;-60
2023/04/01 11:21:23;;;;;;;11.00;8.60;;;11.80;99.90;;;;;;5068964;28;20488;-59
2023/04/01 11:24:08;;;;;;;11.10;7.72;;;11.70;99.90;;;;;;5070012;28;20024;-60
2023/04/01 11:26:44;;;;;;;11.35;8.80;;;11.70;99.90;;;;;;5080086;28;20511;-59
2023/04/01 11:29:38;;;;;;;11.60;8.82;;;11.80;99.90;;;;;;5078411;28;20032;-60
2023/04/01 11:32:22;;;;;;;12.05;8.93;;;11.80;99.90;;;;;;5067299;28;20012;-59
2023/04/01 11:34:57;;;;;;;10.70;8.73;;;11.80;99.90;;;;;;5064503;28;20055;-59
2023/04/01 11:37:50;;;;;;;12.88;10.50;;;11.90;99.90;;;;;;5076568;28;20081;-60
2023/04/01 11:40:52;;;;;;;16.05;11.48;;;12.00;99.90;;;;;;5068569;28;20123;-59
2023/04/01 11:43:51;;;;;;;12.90;10.55;;;12.10;99.90;;;;;;5082627;28;20021;-60
2023/04/01 11:46:30;;;;;;;15.17;10.77;;;12.20;99.90;;;;;;5057784;28;20047;-60
2023/04/01 11:49:15;;;;;;;11.73;9.20;;;12.30;99.90;;;;;;5071423;28;20334;-59
2023/04/01 11:51:40;;;;;;;13.25;9.77;;;12.40;99.90;;;;;;5069150;28;20027;-59
2023/04/01 11:54:19;;;;;;;9.68;8.65;;;12.50;99.90;;;;;;5070284;28;20016;-59
2023/04/01 11:57:14;;;;;;;10.47;9.20;;;12.60;99.90;;;;;;5063880;28;20067;-59
2023/04/01 11:59:50;;;;;;;11.55;7.60;;;12.50;99.90;;;;;;5069281;28;20504;-60
2023/04/01 12:02:42;;;;;;;10.98;8.13;;;12.40;99.90;;;;;;5069602;28;20111;-60
2023/04/01 12:05:20;;;;;;;10.43;7.95;;;12.40;99.90;;;;;;5070998;28;20025;-60
2023/04/01 12:08:07;;;;;;;11.27;7.53;;;12.30;99.90;;;;;;5070330;28;20113;-60
2023/04/01 12:10:56;;;;;;;10.57;7.88;;;12.30;99.90;;;;;;5066427;28;20107;-59
2023/04/01 12:13:53;;;;;;;7.30;5.95;;;12.30;99.90;;;;;;5062548;28;20044;-59
2023/04/01 12:16:34;;;;;;;7.97;6.35;;;12.40;99.90;;;;;;5066405;28;20028;-60
2023/04/01 12:19:13;;;;;;;8.80;6.47;;;12.50;99.90;;;;;;5056300;28;20041;-60
2023/04/01 12:22:00;;;;;;;8.27;6.50;;;12.60;99.90;;;;;;5061399;28;20086;-59
2023/04/01 12:24:57;;;;;;;6.85;6.15;;;12.80;99.90;;;;;;5070954;28;20503;-59
2023/04/01 12:27:27;;;;;;;6.97;6.28;;;13.00;99.90;;;;;;5064796;28;20480;-60
2023/04/01 12:30:26;;;;;;;6.38;5.72;;;13.20;99.90;;;;;;5074735;28;20024;-60
2023/04/01 12:32:52;;;;;;;7.40;6.40;;;13.30;99.90;;;;;;5074489;28;20024;-60
2023/04/01 12:35:37;;;;;;;8.02;7.22;;;13.30;99.90;;;;;;5073582;28;20271;-60
2023/04/01 12:38:12;;;;;;;8.18;7.38;;;13.20;99.90;;;;;;5074251;28;20070;-60
2023/04/01 12:41:14;;;;;;;9.52;7.60;;;13.00;99.90;;;;;;5075011;28;20024;-60
2023/04/01 12:43:58;;;;;;;7.43;6.60;;;12.80;99.90;;;;;;5074577;28;20031;-60
2023/04/01 12:46:41;;;;;;;7.00;6.30;;;12.70;99.90;;;;;;5062234;28;20103;-60
2023/04/01 12:49:29;;;;;;;5.80;5.20;;;12.60;99.90;;;;;;5068952;28;20021;-60
2023/04/01 12:52:03;;;;;;;7.43;6.65;;;12.60;99.90;;;;;;5073131;28;20512;-60
2023/04/01 12:55:08;;;;;;;7.03;6.28;;;12.60;99.90;;;;;;5069203;28;20033;-60
2023/04/01 12:57:58;;;;;;;6.63;6.03;;;12.60;99.90;;;;;;5065743;28;20033;-60
2023/04/01 13:00:45;;;;;;;6.45;5.35;;;12.50;99.90;;;;;;5070934;28;20047;-59
2023/04/01 13:03:32;;;;;;;7.57;5.53;;;12.50;99.90;;;;;;5064175;28;20017;-60
2023/04/01 13:06:19;;;;;;;6.00;5.32;;;12.50;99.90;;;;;;5063878;28;20016;-60
2023/04/01 13:09:16;;;;;;;6.40;5.53;;;12.50;99.90;;;;;;5068289;28;20032;-60
2023/04/01 13:11:52;;;;;;;4.95;4.45;;;12.50;99.90;;;;;;5065804;28;20476;-60
2023/04/01 13:14:30;;;;;;;5.30;4.80;;;12.50;99.90;;;;;;5057213;28;20389;-60
2023/04/01 13:17:01;;;;;;;7.32;5.30;;;12.50;99.90;;;;;;5066424;28;20074;-60
2023/04/01 13:20:11;;;;;;;6.65;5.10;;;12.50;99.90;;;;;;5072467;28;20435;-60
2023/04/01 13:22:53;;;;;;;5.95;5.35;;;12.60;99.90;;;;;;4992051;28;20026;-60
2023/04/01 13:25:27;;;;;;;6.55;4.80;;;12.60;99.90;;;;;;5070636;28;20032;-60
2023/04/01 13:28:25;;;;;;;5.32;4.30;;;12.60;99.90;;;;;;5073601;28;20472;-60